Time;durP1;ratioP1;P1;durP2;ratioP2;P2;SDS_P1;SDS_P2;PMS_P1;PMS_P2;Temp;Humidity;BMP_temperature;BMP_pressure;BME280_temperature;BME280_humidity;BME280_pressure;Samples;Min_cycle;Max_cycle;Signal;HPM_P1;HPM_P2
2021/05/30 00:00:22;;;;;;;36.67;17.90;;;;;;;;;;5037698;28;20145;-82
2021/05/30 00:02:52;;;;;;;33.70;17.67;;;;;;;;;;5038351;28;20121;-80
2021/05/30 00:05:19;;;;;;;33.67;17.35;;;;;;;;;;5036774;28;20061;-80
2021/05/30 00:07:46;;;;;;;38.08;17.58;;;;;;;;;;5035618;28;20123;-82
2021/05/30 00:10:13;;;;;;;31.52;16.58;;;;;;;;;;5036632;28;20341;-82
2021/05/30 00:12:48;;;;;;;31.80;15.90;;;;;;;;;;5036889;28;20393;-80
2021/05/30 00:15:15;;;;;;;32.33;17.45;;;;;;;;;;5037862;28;20057;-82
2021/05/30 00:17:42;;;;;;;32.45;16.88;;;;;;;;;;5036854;28;20060;-82
2021/05/30 00:20:10;;;;;;;42.70;18.17;;;;;;;;;;5036391;28;20072;-82
2021/05/30 00:22:37;;;;;;;37.97;19.33;;;;;;;;;;5037909;28;20345;-82
2021/05/30 00:25:04;;;;;;;34.10;17.27;;;;;;;;;;5037240;28;20060;-81
2021/05/30 00:27:32;;;;;;;33.60;17.35;;;;;;;;;;5035621;28;20089;-82
2021/05/30 00:30:00;;;;;;;31.25;16.70;;;;;;;;;;5034935;28;20046;-81
2021/05/30 00:32:27;;;;;;;44.35;17.35;;;;;;;;;;5033210;28;20061;-82
2021/05/30 00:34:54;;;;;;;35.83;18.73;;;;;;;;;;5035155;28;20057;-82
2021/05/30 00:37:21;;;;;;;40.05;18.10;;;;;;;;;;5036556;28;20053;-82
2021/05/30 00:39:47;;;;;;;36.03;17.65;;;;;;;;;;5037617;28;20049;-81
2021/05/30 00:42:14;;;;;;;31.50;17.95;;;;;;;;;;5034462;28;20128;-82
2021/05/30 00:44:41;;;;;;;37.10;18.23;;;;;;;;;;5035456;28;20053;-82
2021/05/30 00:47:07;;;;;;;31.98;17.95;;;;;;;;;;5037275;28;21034;-82
2021/05/30 00:49:34;;;;;;;30.15;16.83;;;;;;;;;;5037951;28;20419;-82
2021/05/30 00:52:03;;;;;;;36.17;17.98;;;;;;;;;;5036806;28;20134;-82
2021/05/30 00:54:30;;;;;;;32.17;17.85;;;;;;;;;;5048038;28;20072;-82
2021/05/30 00:56:57;;;;;;;33.95;17.17;;;;;;;;;;5051789;28;20045;-82
2021/05/30 00:59:23;;;;;;;30.90;17.42;;;;;;;;;;5041289;28;20328;-80
2021/05/30 01:01:50;;;;;;;36.70;17.30;;;;;;;;;;5037622;28;20056;-81
2021/05/30 01:04:17;;;;;;;35.63;16.60;;;;;;;;;;5035038;28;20418;-81
2021/05/30 01:06:44;;;;;;;37.20;17.48;;;;;;;;;;5035322;28;20060;-80
2021/05/30 01:09:12;;;;;;;32.92;17.42;;;;;;;;;;5034615;28;20045;-81
2021/05/30 01:11:45;;;;;;;27.02;16.77;;;;;;;;;;5035522;28;20084;-81
2021/05/30 01:14:12;;;;;;;30.85;17.65;;;;;;;;;;5035785;28;20075;-80
2021/05/30 01:16:38;;;;;;;34.88;19.52;;;;;;;;;;5035372;28;20091;-80
2021/05/30 01:19:08;;;;;;;31.17;17.92;;;;;;;;;;5034751;28;20081;-80
2021/05/30 01:21:35;;;;;;;39.33;19.67;;;;;;;;;;5036676;28;20063;-80
2021/05/30 01:24:01;;;;;;;37.30;19.88;;;;;;;;;;5035237;28;20053;-80
2021/05/30 01:26:28;;;;;;;33.40;17.65;;;;;;;;;;5036524;28;20049;-80
2021/05/30 01:28:55;;;;;;;34.65;18.02;;;;;;;;;;5037071;28;20864;-80
2021/05/30 01:31:21;;;;;;;30.13;17.98;;;;;;;;;;5030457;28;20056;-81
2021/05/30 01:33:48;;;;;;;36.90;20.25;;;;;;;;;;5035841;28;20104;-80
2021/05/30 01:36:15;;;;;;;34.05;19.13;;;;;;;;;;5035919;28;20049;-81
2021/05/30 01:38:42;;;;;;;38.00;19.38;;;;;;;;;;5042891;28;20514;-80
2021/05/30 01:41:08;;;;;;;35.60;19.42;;;;;;;;;;5044203;28;20049;-81
2021/05/30 01:43:35;;;;;;;37.97;19.55;;;;;;;;;;5045284;28;20053;-80
2021/05/30 01:46:01;;;;;;;29.08;17.23;;;;;;;;;;5035651;28;20053;-80
2021/05/30 01:48:28;;;;;;;35.25;19.83;;;;;;;;;;5045475;28;20053;-81
2021/05/30 01:50:55;;;;;;;45.47;23.02;;;;;;;;;;5038554;28;20330;-81
2021/05/30 01:53:31;;;;;;;39.47;20.27;;;;;;;;;;5037718;28;20053;-81
2021/05/30 01:58:26;;;;;;;36.88;20.00;;;;;;;;;;5037716;28;20072;-81
2021/05/30 02:00:53;;;;;;;41.30;21.13;;;;;;;;;;5038627;28;20051;-80
2021/05/30 02:03:19;;;;;;;41.35;22.20;;;;;;;;;;5044032;28;20057;-80
2021/05/30 02:05:51;;;;;;;43.67;21.17;;;;;;;;;;5044595;28;20058;-80
2021/05/30 02:08:19;;;;;;;40.15;20.25;;;;;;;;;;5041987;28;20435;-81
2021/05/30 02:10:45;;;;;;;34.45;19.52;;;;;;;;;;5036332;28;20049;-81
2021/05/30 02:13:12;;;;;;;40.90;21.48;;;;;;;;;;5037340;28;20057;-80
2021/05/30 02:15:39;;;;;;;36.42;19.83;;;;;;;;;;5037106;28;20041;-81
2021/05/30 02:18:06;;;;;;;36.67;21.58;;;;;;;;;;5037311;28;20589;-81
2021/05/30 02:20:34;;;;;;;40.42;20.42;;;;;;;;;;5036717;28;20132;-81
2021/05/30 02:23:01;;;;;;;47.67;21.60;;;;;;;;;;5035775;28;20234;-81
2021/05/30 02:25:28;;;;;;;50.10;23.42;;;;;;;;;;5035126;28;20052;-81
2021/05/30 02:27:55;;;;;;;37.47;21.50;;;;;;;;;;5036641;28;20325;-81
2021/05/30 02:30:22;;;;;;;43.80;22.00;;;;;;;;;;5037027;28;20045;-80
2021/05/30 02:32:49;;;;;;;37.00;22.02;;;;;;;;;;5034174;28;20456;-81
2021/05/30 02:35:16;;;;;;;47.63;22.42;;;;;;;;;;5036646;28;20410;-81
2021/05/30 02:37:43;;;;;;;47.40;23.48;;;;;;;;;;5038324;28;20113;-82
2021/05/30 02:40:11;;;;;;;49.72;25.05;;;;;;;;;;5037812;28;20085;-82
2021/05/30 02:42:38;;;;;;;44.05;22.90;;;;;;;;;;5035002;28;20057;-82
2021/05/30 02:45:05;;;;;;;44.42;23.40;;;;;;;;;;5039023;28;20041;-82
2021/05/30 02:47:31;;;;;;;45.80;22.48;;;;;;;;;;5037183;28;20045;-82
2021/05/30 02:49:59;;;;;;;37.70;21.10;;;;;;;;;;5037903;28;20080;-82
2021/05/30 02:52:25;;;;;;;45.80;21.95;;;;;;;;;;5037164;28;20050;-82
2021/05/30 02:54:54;;;;;;;44.85;23.35;;;;;;;;;;5038235;28;20433;-82
2021/05/30 02:57:20;;;;;;;44.97;23.90;;;;;;;;;;5034011;28;20055;-82
2021/05/30 02:59:47;;;;;;;42.08;22.55;;;;;;;;;;5033947;28;20104;-82
2021/05/30 03:02:14;;;;;;;41.78;22.02;;;;;;;;;;5037299;28;20143;-82
2021/05/30 03:04:43;;;;;;;39.45;22.30;;;;;;;;;;5034823;28;20104;-81
2021/05/30 03:07:10;;;;;;;47.75;25.92;;;;;;;;;;5036644;28;20061;-82
2021/05/30 03:09:38;;;;;;;44.30;25.80;;;;;;;;;;5037279;28;20049;-82
2021/05/30 03:12:05;;;;;;;45.65;22.15;;;;;;;;;;5036781;28;20059;-82
2021/05/30 03:14:32;;;;;;;47.28;24.38;;;;;;;;;;5037687;28;20109;-82
2021/05/30 03:16:59;;;;;;;44.72;24.52;;;;;;;;;;5043251;28;20045;-82
2021/05/30 03:19:25;;;;;;;49.47;24.25;;;;;;;;;;5041395;28;20056;-82
2021/05/30 03:21:52;;;;;;;38.67;23.27;;;;;;;;;;5041345;28;20045;-82
2021/05/30 03:24:18;;;;;;;47.08;25.02;;;;;;;;;;5043879;28;20049;-82
2021/05/30 03:26:45;;;;;;;47.17;25.08;;;;;;;;;;5043688;28;20041;-82
2021/05/30 03:29:12;;;;;;;41.53;23.38;;;;;;;;;;5041712;28;20051;-82
2021/05/30 03:31:38;;;;;;;47.30;24.35;;;;;;;;;;5034204;28;20128;-82
2021/05/30 03:34:05;;;;;;;45.22;24.35;;;;;;;;;;5038584;28;20337;-82
2021/05/30 03:36:33;;;;;;;49.67;25.10;;;;;;;;;;5040800;28;20115;-82
2021/05/30 03:39:08;;;;;;;47.95;24.50;;;;;;;;;;5041652;28;20049;-82
2021/05/30 03:41:37;;;;;;;58.83;26.90;;;;;;;;;;5039632;28;20049;-82
2021/05/30 03:44:04;;;;;;;47.30;25.77;;;;;;;;;;5039225;28;20041;-82
2021/05/30 03:46:31;;;;;;;50.67;25.65;;;;;;;;;;5042758;28;20056;-82
2021/05/30 03:48:58;;;;;;;49.28;25.15;;;;;;;;;;5040058;28;20057;-82
2021/05/30 03:51:25;;;;;;;46.88;25.88;;;;;;;;;;5041605;28;20055;-82
2021/05/30 03:53:52;;;;;;;48.75;24.92;;;;;;;;;;5041263;28;20405;-82
2021/05/30 03:56:19;;;;;;;43.08;24.83;;;;;;;;;;5042001;28;20193;-82
2021/05/30 03:58:46;;;;;;;44.40;24.85;;;;;;;;;;5041302;28;20083;-82
2021/05/30 04:01:13;;;;;;;46.35;25.77;;;;;;;;;;5043212;28;20073;-82
2021/05/30 04:03:40;;;;;;;50.17;27.10;;;;;;;;;;5042257;28;20046;-82
2021/05/30 04:06:07;;;;;;;52.22;28.42;;;;;;;;;;5049558;28;20079;-80
2021/05/30 04:08:34;;;;;;;42.45;24.90;;;;;;;;;;5058370;28;20045;-82
2021/05/30 04:11:01;;;;;;;46.70;27.27;;;;;;;;;;5050955;28;20045;-82
2021/05/30 04:13:28;;;;;;;43.53;26.73;;;;;;;;;;5043645;28;20357;-82
2021/05/30 04:15:54;;;;;;;33.17;22.27;;;;;;;;;;5041457;28;20124;-82
2021/05/30 04:18:22;;;;;;;35.03;22.67;;;;;;;;;;5041473;28;20053;-82
2021/05/30 04:20:51;;;;;;;31.17;20.08;;;;;;;;;;5041036;28;20111;-83
2021/05/30 04:23:18;;;;;;;30.20;18.77;;;;;;;;;;5040950;28;20124;-82
2021/05/30 04:25:45;;;;;;;20.33;15.32;;;;;;;;;;5039628;28;20055;-82
2021/05/30 04:28:12;;;;;;;20.35;13.82;;;;;;;;;;5039648;28;20052;-82
2021/05/30 04:30:39;;;;;;;15.60;12.70;;;;;;;;;;5040790;28;20452;-80
2021/05/30 04:33:05;;;;;;;18.33;12.70;;;;;;;;;;5038170;28;20097;-81
2021/05/30 04:35:32;;;;;;;14.60;11.32;;;;;;;;;;5039448;28;20041;-81
2021/05/30 04:37:58;;;;;;;15.27;10.43;;;;;;;;;;5042192;28;20041;-81
2021/05/30 04:40:25;;;;;;;14.57;9.38;;;;;;;;;;5042188;28;20049;-82
2021/05/30 04:42:52;;;;;;;10.85;8.27;;;;;;;;;;5042740;28;20483;-82
2021/05/30 04:45:19;;;;;;;9.43;7.40;;;;;;;;;;5044749;28;20049;-81
2021/05/30 04:47:46;;;;;;;12.45;7.75;;;;;;;;;;5053149;28;20076;-81
2021/05/30 04:50:13;;;;;;;11.02;7.22;;;;;;;;;;5044975;28;20433;-82
2021/05/30 04:52:40;;;;;;;8.70;6.90;;;;;;;;;;5042939;28;20045;-81
2021/05/30 04:55:07;;;;;;;9.35;6.65;;;;;;;;;;5039804;28;20053;-81
2021/05/30 04:57:34;;;;;;;8.35;5.88;;;;;;;;;;5040689;28;20060;-81
2021/05/30 05:00:01;;;;;;;9.00;6.13;;;;;;;;;;5041652;28;20042;-82
2021/05/30 05:02:27;;;;;;;10.00;6.43;;;;;;;;;;5041170;28;20056;-81
2021/05/30 05:04:54;;;;;;;10.23;6.97;;;;;;;;;;5041965;28;20049;-81
2021/05/30 05:07:21;;;;;;;10.07;6.57;;;;;;;;;;5041043;28;20064;-81
2021/05/30 05:09:47;;;;;;;9.15;6.38;;;;;;;;;;5042231;28;20061;-81
2021/05/30 05:12:14;;;;;;;11.30;7.13;;;;;;;;;;5041961;28;20136;-80
2021/05/30 05:14:40;;;;;;;10.85;7.05;;;;;;;;;;5040586;28;20049;-81
2021/05/30 05:17:07;;;;;;;9.90;6.97;;;;;;;;;;5041758;28;20061;-81
2021/05/30 05:19:33;;;;;;;16.60;7.40;;;;;;;;;;5042975;28;20406;-81
2021/05/30 05:22:00;;;;;;;13.35;7.72;;;;;;;;;;5041086;28;20060;-81
2021/05/30 05:24:27;;;;;;;17.20;7.07;;;;;;;;;;5040964;28;20049;-81
2021/05/30 05:26:53;;;;;;;14.18;7.25;;;;;;;;;;5040758;28;20046;-80
2021/05/30 05:29:23;;;;;;;12.32;7.35;;;;;;;;;;5039052;28;20425;-81
2021/05/30 05:31:50;;;;;;;13.88;7.38;;;;;;;;;;5036352;28;20053;-81
2021/05/30 05:34:17;;;;;;;10.30;6.45;;;;;;;;;;5039811;28;20227;-81
2021/05/30 05:36:43;;;;;;;14.25;6.78;;;;;;;;;;5037829;28;20053;-81
2021/05/30 05:39:10;;;;;;;9.10;6.28;;;;;;;;;;5038109;28;20064;-81
2021/05/30 05:41:36;;;;;;;11.25;7.97;;;;;;;;;;5039483;28;20046;-81
2021/05/30 05:44:03;;;;;;;11.85;6.45;;;;;;;;;;5039568;28;20057;-81
2021/05/30 05:46:30;;;;;;;13.65;7.72;;;;;;;;;;5038297;28;20050;-81
2021/05/30 05:48:56;;;;;;;16.75;7.53;;;;;;;;;;5038792;28;20108;-81
2021/05/30 05:51:23;;;;;;;13.60;7.45;;;;;;;;;;5037453;28;20457;-81
2021/05/30 05:53:55;;;;;;;16.52;7.95;;;;;;;;;;5039914;28;20060;-81
2021/05/30 05:56:22;;;;;;;21.10;8.85;;;;;;;;;;5040292;28;20517;-81
2021/05/30 05:58:50;;;;;;;14.52;7.18;;;;;;;;;;5032963;28;20412;-81
2021/05/30 06:01:16;;;;;;;11.35;7.43;;;;;;;;;;5034979;28;20045;-81
2021/05/30 06:03:43;;;;;;;12.13;7.32;;;;;;;;;;5021341;28;20045;-81
2021/05/30 06:06:10;;;;;;;12.48;6.90;;;;;;;;;;5036767;28;20377;-81
2021/05/30 06:08:36;;;;;;;12.93;7.05;;;;;;;;;;5037817;28;20182;-81
2021/05/30 06:11:06;;;;;;;12.68;6.55;;;;;;;;;;5030355;28;20049;-81
2021/05/30 06:13:32;;;;;;;13.50;7.25;;;;;;;;;;5036428;28;20303;-82
2021/05/30 06:15:59;;;;;;;14.90;7.82;;;;;;;;;;5037986;28;20209;-81
2021/05/30 06:18:27;;;;;;;11.63;7.18;;;;;;;;;;5038932;28;20045;-82
2021/05/30 06:20:54;;;;;;;12.52;7.47;;;;;;;;;;5039735;28;20045;-83
2021/05/30 06:23:21;;;;;;;15.70;9.27;;;;;;;;;;5038291;28;20045;-83
2021/05/30 06:25:48;;;;;;;20.35;9.45;;;;;;;;;;5035699;28;20073;-83
2021/05/30 06:28:18;;;;;;;18.83;8.95;;;;;;;;;;5038993;28;20053;-83
2021/05/30 06:30:45;;;;;;;24.13;10.80;;;;;;;;;;5037189;28;20179;-83
2021/05/30 06:33:13;;;;;;;25.25;8.80;;;;;;;;;;5036492;28;20059;-83
2021/05/30 06:35:42;;;;;;;18.00;9.13;;;;;;;;;;5038180;28;20045;-83
2021/05/30 06:38:09;;;;;;;21.00;9.88;;;;;;;;;;5038108;28;20148;-83
2021/05/30 06:40:37;;;;;;;20.30;9.43;;;;;;;;;;5037296;28;20317;-83
2021/05/30 06:43:04;;;;;;;12.23;8.35;;;;;;;;;;5034496;28;20042;-82
2021/05/30 06:45:30;;;;;;;17.70;9.55;;;;;;;;;;5036576;28;20060;-81
2021/05/30 06:47:59;;;;;;;17.83;8.27;;;;;;;;;;5036270;28;20181;-81
2021/05/30 06:50:25;;;;;;;18.55;10.60;;;;;;;;;;5035834;28;20138;-82
2021/05/30 06:52:52;;;;;;;19.60;10.18;;;;;;;;;;5035917;28;20046;-82
2021/05/30 06:55:20;;;;;;;21.13;13.77;;;;;;;;;;5036844;28;20109;-81
2021/05/30 06:57:47;;;;;;;29.42;15.75;;;;;;;;;;5037504;28;20053;-82
2021/05/30 07:00:15;;;;;;;26.75;16.30;;;;;;;;;;5035431;28;20053;-82
2021/05/30 07:02:42;;;;;;;35.25;17.00;;;;;;;;;;5033897;28;20313;-82
2021/05/30 07:05:09;;;;;;;28.30;15.50;;;;;;;;;;5035473;28;20318;-82
2021/05/30 07:07:36;;;;;;;25.88;14.93;;;;;;;;;;5035530;28;20136;-82
2021/05/30 07:10:04;;;;;;;29.30;16.27;;;;;;;;;;5032717;28;20105;-83
2021/05/30 07:12:30;;;;;;;28.10;17.48;;;;;;;;;;5035666;28;20049;-83
2021/05/30 07:14:59;;;;;;;34.83;19.15;;;;;;;;;;5037080;28;20068;-83
2021/05/30 07:17:26;;;;;;;31.52;18.27;;;;;;;;;;5023378;28;20464;-83
2021/05/30 07:19:56;;;;;;;39.40;20.33;;;;;;;;;;5026483;28;20054;-83
2021/05/30 07:22:26;;;;;;;32.83;19.80;;;;;;;;;;5049112;28;20076;-83
2021/05/30 07:24:52;;;;;;;38.95;21.65;;;;;;;;;;5029267;28;20049;-84
2021/05/30 07:27:25;;;;;;;34.53;18.40;;;;;;;;;;5040696;28;20049;-82
2021/05/30 07:29:52;;;;;;;28.65;17.00;;;;;;;;;;5037294;28;20045;-82
2021/05/30 07:32:43;;;;;;;32.78;17.55;;;;;;;;;;5035815;28;20055;-85
2021/05/30 07:35:14;;;;;;;27.13;15.88;;;;;;;;;;5037030;28;20274;-83
2021/05/30 07:37:40;;;;;;;30.70;15.88;;;;;;;;;;5038867;28;20280;-81
2021/05/30 07:40:08;;;;;;;31.88;16.55;;;;;;;;;;5043393;28;20049;-81
2021/05/30 07:42:35;;;;;;;31.52;16.95;;;;;;;;;;5046253;28;20056;-82
2021/05/30 07:45:02;;;;;;;29.17;17.10;;;;;;;;;;5047628;28;20116;-82
2021/05/30 07:47:29;;;;;;;33.40;17.25;;;;;;;;;;5042234;28;20049;-82
2021/05/30 07:49:55;;;;;;;28.70;17.02;;;;;;;;;;5046290;28;20053;-83
2021/05/30 07:52:22;;;;;;;30.73;16.42;;;;;;;;;;5045751;28;20081;-83
2021/05/30 07:54:48;;;;;;;33.20;18.27;;;;;;;;;;5039278;28;20140;-83
2021/05/30 07:57:15;;;;;;;27.42;15.70;;;;;;;;;;5035971;28;20049;-83
2021/05/30 07:59:42;;;;;;;30.52;16.05;;;;;;;;;;5039853;28;20060;-83
2021/05/30 08:02:09;;;;;;;25.23;13.65;;;;;;;;;;5045230;28;20248;-83
2021/05/30 08:04:35;;;;;;;26.02;14.13;;;;;;;;;;5043229;28;20056;-83
2021/05/30 08:07:03;;;;;;;25.13;15.00;;;;;;;;;;5027788;28;20084;-83
2021/05/30 08:09:29;;;;;;;28.55;14.93;;;;;;;;;;5038507;28;20060;-84
2021/05/30 08:11:58;;;;;;;29.10;15.60;;;;;;;;;;5039582;28;20429;-82
2021/05/30 08:14:26;;;;;;;28.15;14.55;;;;;;;;;;5037911;28;20283;-84
2021/05/30 08:16:55;;;;;;;35.65;15.88;;;;;;;;;;5037610;28;20064;-84
2021/05/30 08:19:28;;;;;;;28.00;15.05;;;;;;;;;;5036781;28;20155;-84
2021/05/30 08:21:56;;;;;;;27.48;15.05;;;;;;;;;;5037531;28;20045;-84
2021/05/30 08:24:24;;;;;;;25.42;15.30;;;;;;;;;;5037520;28;20395;-84
2021/05/30 08:26:51;;;;;;;29.38;15.50;;;;;;;;;;5038353;28;20055;-83
2021/05/30 08:29:19;;;;;;;24.25;14.75;;;;;;;;;;5221996;22;20065;-84
2021/05/30 08:31:47;;;;;;;26.40;13.45;;;;;;;;;;5041004;28;20053;-84
2021/05/30 08:34:15;;;;;;;25.70;15.90;;;;;;;;;;5042629;28;20097;-84
2021/05/30 08:36:42;;;;;;;25.35;15.93;;;;;;;;;;5030780;28;20073;-84
2021/05/30 08:39:08;;;;;;;23.70;15.73;;;;;;;;;;5037771;28;20441;-83
2021/05/30 08:41:56;;;;;;;30.25;17.13;;;;;;;;;;5044379;28;20040;-82
2021/05/30 08:44:22;;;;;;;29.80;16.67;;;;;;;;;;5040089;28;20056;-83
2021/05/30 08:46:49;;;;;;;29.85;16.35;;;;;;;;;;5049662;28;20033;-83
2021/05/30 08:49:22;;;;;;;26.50;15.02;;;;;;;;;;5033463;28;20048;-83
2021/05/30 08:51:48;;;;;;;22.23;14.18;;;;;;;;;;5042143;28;20076;-83
2021/05/30 08:54:16;;;;;;;19.60;11.15;;;;;;;;;;5038445;28;20108;-83
2021/05/30 08:56:47;;;;;;;22.55;12.63;;;;;;;;;;5038837;28;20060;-83
2021/05/30 08:59:13;;;;;;;20.08;12.90;;;;;;;;;;5039184;28;20095;-82
2021/05/30 09:01:43;;;;;;;25.42;13.63;;;;;;;;;;5036485;28;20372;-82
2021/05/30 09:04:10;;;;;;;21.17;13.23;;;;;;;;;;5039508;28;20346;-83
2021/05/30 09:06:37;;;;;;;22.52;12.65;;;;;;;;;;5039207;28;20385;-83
2021/05/30 09:09:19;;;;;;;21.25;12.38;;;;;;;;;;5035467;28;20057;-83
2021/05/30 09:11:50;;;;;;;19.17;12.35;;;;;;;;;;5015975;28;20185;-83
2021/05/30 09:14:23;;;;;;;18.67;11.45;;;;;;;;;;5018287;28;20057;-82
2021/05/30 09:17:07;;;;;;;15.98;11.00;;;;;;;;;;5034618;28;20364;-83
2021/05/30 09:19:35;;;;;;;19.10;11.32;;;;;;;;;;5036661;28;20100;-84
2021/05/30 09:22:21;;;;;;;16.88;11.02;;;;;;;;;;5035664;28;20125;-83
2021/05/30 09:24:48;;;;;;;16.00;11.82;;;;;;;;;;5032850;28;20049;-83
2021/05/30 09:27:32;;;;;;;17.52;11.40;;;;;;;;;;5027396;28;20047;-83
2021/05/30 09:30:10;;;;;;;19.52;11.50;;;;;;;;;;5035700;28;20539;-82
2021/05/30 09:32:56;;;;;;;17.13;11.82;;;;;;;;;;5016717;28;20452;-82
2021/05/30 09:35:45;;;;;;;18.00;11.82;;;;;;;;;;5017631;28;20116;-82
2021/05/30 09:38:16;;;;;;;17.48;11.55;;;;;;;;;;5011810;28;20453;-82
2021/05/30 09:40:53;;;;;;;15.68;11.00;;;;;;;;;;5017012;28;20072;-84
2021/05/30 09:43:36;;;;;;;15.30;11.57;;;;;;;;;;5016436;28;20054;-83
2021/05/30 09:46:21;;;;;;;16.75;10.80;;;;;;;;;;5019513;28;20088;-84
2021/05/30 09:48:51;;;;;;;19.13;12.43;;;;;;;;;;5018312;28;20214;-83
2021/05/30 09:51:26;;;;;;;18.20;12.02;;;;;;;;;;5017197;28;20119;-83
2021/05/30 09:53:55;;;;;;;17.25;11.85;;;;;;;;;;5017764;28;20065;-83
2021/05/30 09:56:24;;;;;;;17.83;12.23;;;;;;;;;;5017614;28;20050;-83
2021/05/30 09:58:55;;;;;;;19.55;13.07;;;;;;;;;;5035122;28;20072;-83
2021/05/30 10:01:21;;;;;;;18.17;12.13;;;;;;;;;;5035796;28;20045;-83
2021/05/30 10:03:49;;;;;;;16.00;11.10;;;;;;;;;;5037345;28;20103;-83
2021/05/30 10:06:15;;;;;;;19.38;11.77;;;;;;;;;;5035991;28;20053;-84
2021/05/30 10:08:42;;;;;;;20.98;12.02;;;;;;;;;;5037921;28;20046;-84
2021/05/30 10:11:09;;;;;;;18.88;12.23;;;;;;;;;;5036809;28;20369;-84
2021/05/30 10:13:36;;;;;;;18.35;12.45;;;;;;;;;;5036320;28;20085;-84
2021/05/30 10:16:03;;;;;;;20.58;12.77;;;;;;;;;;5033927;28;20116;-84
2021/05/30 10:18:33;;;;;;;20.42;12.23;;;;;;;;;;5034056;28;20053;-84
2021/05/30 10:21:01;;;;;;;26.67;12.65;;;;;;;;;;5035055;28;20045;-83
2021/05/30 10:23:31;;;;;;;19.38;13.27;;;;;;;;;;5031644;28;20072;-82
2021/05/30 10:26:11;;;;;;;19.35;12.18;;;;;;;;;;5010078;28;20057;-82
2021/05/30 10:28:47;;;;;;;18.90;11.63;;;;;;;;;;5012898;28;20085;-83
2021/05/30 10:31:29;;;;;;;17.42;12.45;;;;;;;;;;5032439;28;20433;-82
2021/05/30 10:34:14;;;;;;;16.42;11.45;;;;;;;;;;5042010;28;20210;-82
2021/05/30 10:37:09;;;;;;;19.48;11.90;;;;;;;;;;5047642;28;20108;-82
2021/05/30 10:39:35;;;;;;;21.10;12.65;;;;;;;;;;5028976;28;20068;-82
2021/05/30 10:42:27;;;;;;;18.42;11.70;;;;;;;;;;5035786;28;20104;-81
2021/05/30 10:45:17;;;;;;;17.67;11.45;;;;;;;;;;5037123;28;20068;-81
2021/05/30 10:47:52;;;;;;;18.98;11.48;;;;;;;;;;5033154;28;20049;-82
2021/05/30 10:53:50;;;;;;;18.05;11.77;;;;;;;;;;5035654;28;20103;-82
2021/05/30 10:56:22;;;;;;;19.10;14.02;;;;;;;;;;5018828;28;20053;-82
2021/05/30 10:59:08;;;;;;;23.45;14.10;;;;;;;;;;5035259;28;20052;-83
2021/05/30 11:01:50;;;;;;;25.92;13.80;;;;;;;;;;5031964;28;20107;-84
2021/05/30 11:04:25;;;;;;;24.10;15.45;;;;;;;;;;5030601;28;20088;-84
2021/05/30 11:07:13;;;;;;;24.05;12.35;;;;;;;;;;5032500;28;20071;-83
2021/05/30 11:09:49;;;;;;;29.42;19.95;;;;;;;;;;5006036;28;20058;-83
2021/05/30 11:12:20;;;;;;;15.38;10.35;;;;;;;;;;5010838;28;20339;-83
2021/05/30 11:15:06;;;;;;;21.83;13.85;;;;;;;;;;5004070;28;20053;-83
2021/05/30 11:17:37;;;;;;;15.25;9.77;;;;;;;;;;5034351;28;20302;-81
2021/05/30 11:20:04;;;;;;;23.83;11.02;;;;;;;;;;5027010;28;20140;-81
2021/05/30 11:22:50;;;;;;;17.70;10.98;;;;;;;;;;5031519;28;20052;-82
2021/05/30 11:25:20;;;;;;;17.92;10.63;;;;;;;;;;5029175;28;20053;-82
2021/05/30 11:28:09;;;;;;;24.35;11.60;;;;;;;;;;5010602;28;20057;-81
2021/05/30 11:30:47;;;;;;;20.52;11.00;;;;;;;;;;4998970;28;20184;-82
2021/05/30 11:33:26;;;;;;;20.77;12.68;;;;;;;;;;5021536;28;20042;-82
2021/05/30 11:35:55;;;;;;;18.27;10.25;;;;;;;;;;5009314;28;20120;-82
2021/05/30 11:38:44;;;;;;;18.88;11.32;;;;;;;;;;5011496;28;20108;-81
2021/05/30 11:41:11;;;;;;;19.52;11.52;;;;;;;;;;5010319;28;20152;-83
2021/05/30 11:43:38;;;;;;;19.25;11.20;;;;;;;;;;5017413;28;20228;-82
2021/05/30 11:46:12;;;;;;;16.42;9.45;;;;;;;;;;5031169;28;20524;-81
2021/05/30 11:48:41;;;;;;;20.90;9.88;;;;;;;;;;5028874;28;20080;-82
2021/05/30 11:51:08;;;;;;;20.40;10.63;;;;;;;;;;5030995;28;20107;-82
2021/05/30 11:53:38;;;;;;;18.52;11.23;;;;;;;;;;5012222;28;20049;-82
2021/05/30 11:56:05;;;;;;;16.42;10.07;;;;;;;;;;5009912;28;20267;-81
2021/05/30 11:58:43;;;;;;;12.68;8.43;;;;;;;;;;5010388;28;20286;-80
2021/05/30 12:01:16;;;;;;;16.58;8.60;;;;;;;;;;5023303;28;20084;-82
2021/05/30 12:03:49;;;;;;;16.00;8.95;;;;;;;;;;5030011;28;20104;-82
2021/05/30 12:06:17;;;;;;;15.77;8.75;;;;;;;;;;5031774;28;20401;-82
2021/05/30 12:08:54;;;;;;;14.23;8.02;;;;;;;;;;5026375;28;20408;-83
2021/05/30 12:11:28;;;;;;;10.90;6.93;;;;;;;;;;5032170;28;20312;-82
2021/05/30 12:14:01;;;;;;;13.10;7.32;;;;;;;;;;5028006;28;20053;-80
2021/05/30 12:16:28;;;;;;;13.57;5.60;;;;;;;;;;5021663;28;20099;-81
2021/05/30 12:18:56;;;;;;;11.23;5.75;;;;;;;;;;5030950;28;20041;-83
2021/05/30 12:21:40;;;;;;;9.80;5.47;;;;;;;;;;5030425;28;20052;-83
2021/05/30 12:24:08;;;;;;;12.68;5.80;;;;;;;;;;5019861;28;20041;-82
2021/05/30 12:26:36;;;;;;;9.93;5.72;;;;;;;;;;5035906;28;20623;-83
2021/05/30 12:29:03;;;;;;;7.72;4.85;;;;;;;;;;5034675;28;20405;-83
2021/05/30 12:31:31;;;;;;;13.23;5.05;;;;;;;;;;5033197;28;20092;-83
2021/05/30 12:34:02;;;;;;;12.70;5.32;;;;;;;;;;5031439;28;20429;-83
2021/05/30 12:36:30;;;;;;;9.68;4.53;;;;;;;;;;5028528;28;20060;-83
2021/05/30 12:39:00;;;;;;;7.07;4.57;;;;;;;;;;5031582;28;20052;-83
2021/05/30 12:41:46;;;;;;;9.10;5.55;;;;;;;;;;5033808;28;20230;-82
2021/05/30 12:44:14;;;;;;;8.80;4.35;;;;;;;;;;5030231;28;20049;-83
2021/05/30 12:47:16;;;;;;;7.97;3.20;;;;;;;;;;5029025;28;20049;-83
2021/05/30 12:50:13;;;;;;;9.63;4.18;;;;;;;;;;5002687;28;20079;-83
2021/05/30 12:52:48;;;;;;;7.13;4.03;;;;;;;;;;5022512;28;20076;-83
2021/05/30 12:55:15;;;;;;;9.88;4.43;;;;;;;;;;5038824;28;20045;-82
2021/05/30 12:57:49;;;;;;;9.55;4.47;;;;;;;;;;5038993;28;20465;-83
2021/05/30 13:00:26;;;;;;;11.45;3.95;;;;;;;;;;5017918;28;20318;-83
2021/05/30 13:03:04;;;;;;;12.90;4.75;;;;;;;;;;5035053;28;20049;-83
2021/05/30 13:05:31;;;;;;;10.15;3.75;;;;;;;;;;5027888;28;20152;-83
2021/05/30 13:07:58;;;;;;;7.68;2.75;;;;;;;;;;5028312;28;20372;-84
2021/05/30 13:10:31;;;;;;;8.20;3.58;;;;;;;;;;5031599;28;20314;-85
2021/05/30 13:12:58;;;;;;;9.38;3.38;;;;;;;;;;5027092;28;20107;-85
2021/05/30 13:15:29;;;;;;;7.38;2.90;;;;;;;;;;5031791;28;20226;-84
2021/05/30 13:18:02;;;;;;;6.55;3.05;;;;;;;;;;5040267;28;20055;-85
2021/05/30 13:20:36;;;;;;;5.70;2.40;;;;;;;;;;5036140;28;20391;-86
2021/05/30 13:23:07;;;;;;;7.30;2.60;;;;;;;;;;5036463;28;20091;-85
2021/05/30 13:25:53;;;;;;;9.77;3.53;;;;;;;;;;5031696;28;20053;-85
2021/05/30 13:28:22;;;;;;;4.32;2.70;;;;;;;;;;5037076;28;20080;-84
2021/05/30 13:30:55;;;;;;;9.02;2.80;;;;;;;;;;5042390;28;20081;-85
2021/05/30 13:33:47;;;;;;;8.80;2.90;;;;;;;;;;5046229;28;20169;-84
2021/05/30 13:36:17;;;;;;;7.00;2.58;;;;;;;;;;5028155;28;20049;-84
2021/05/30 13:38:44;;;;;;;6.18;2.50;;;;;;;;;;5039779;28;20041;-84
2021/05/30 13:41:18;;;;;;;8.20;2.53;;;;;;;;;;5040695;28;20041;-84
2021/05/30 13:43:48;;;;;;;5.30;2.20;;;;;;;;;;5031777;28;20038;-84
2021/05/30 13:46:15;;;;;;;7.63;3.05;;;;;;;;;;5033743;28;20069;-85
2021/05/30 13:49:01;;;;;;;7.65;2.33;;;;;;;;;;5049596;28;20041;-86
2021/05/30 13:51:28;;;;;;;6.45;2.53;;;;;;;;;;5048487;28;20087;-84
2021/05/30 13:53:55;;;;;;;7.13;2.83;;;;;;;;;;5041186;28;20057;-85
2021/05/30 13:56:22;;;;;;;5.20;2.30;;;;;;;;;;5041744;28;20246;-84
2021/05/30 13:58:52;;;;;;;7.50;2.60;;;;;;;;;;5037574;28;20037;-84
2021/05/30 14:01:19;;;;;;;8.57;2.80;;;;;;;;;;5036323;28;20094;-86
2021/05/30 14:03:47;;;;;;;8.15;2.97;;;;;;;;;;5038771;28;20033;-84
2021/05/30 14:06:20;;;;;;;10.43;3.20;;;;;;;;;;5045567;28;20045;-85
2021/05/30 14:08:55;;;;;;;6.25;3.33;;;;;;;;;;5043465;28;20251;-85
2021/05/30 14:11:28;;;;;;;8.60;3.28;;;;;;;;;;5036981;28;20081;-85
2021/05/30 14:14:09;;;;;;;9.32;3.45;;;;;;;;;;5036144;28;20059;-85
2021/05/30 14:16:36;;;;;;;8.50;3.10;;;;;;;;;;5036086;28;20049;-86
2021/05/30 14:19:04;;;;;;;6.75;3.28;;;;;;;;;;5029140;28;20049;-86
2021/05/30 14:21:34;;;;;;;8.05;3.17;;;;;;;;;;5037155;28;20068;-86
2021/05/30 14:24:02;;;;;;;8.15;2.95;;;;;;;;;;5030238;28;20057;-86
2021/05/30 14:26:28;;;;;;;9.60;3.08;;;;;;;;;;5033050;28;20042;-86
2021/05/30 14:28:55;;;;;;;11.23;4.03;;;;;;;;;;5033267;28;20095;-86
2021/05/30 14:31:22;;;;;;;8.85;3.97;;;;;;;;;;5039971;28;20119;-85
2021/05/30 14:33:48;;;;;;;11.77;3.40;;;;;;;;;;5041448;28;20049;-85
2021/05/30 14:36:23;;;;;;;6.88;3.42;;;;;;;;;;5044815;28;20191;-86
2021/05/30 14:38:49;;;;;;;9.15;3.38;;;;;;;;;;5044230;28;20162;-85
2021/05/30 14:41:18;;;;;;;12.02;4.05;;;;;;;;;;5039396;28;20045;-86
2021/05/30 14:43:50;;;;;;;10.15;3.35;;;;;;;;;;5035425;28;20286;-84